Terminal Aerodrome Forecast
Issued by NWS Duluth, MN

Home | Current Version | Previous Version | Text Only | Print | Product List | Glossary On
Versions: 1 2 3 4 5 6 7 8 9 10 11 12 13 14 15 16 17 18 19 20 21 22 23 24 25 26 27
687
FTUS43 KDLH 181448 AAB
TAFDLH
TAF AMD
KDLH 181448Z 1815/1912 29008KT P6SM SKC WS015/30040KT
     FM181700 30010KT P6SM SKC
     FM190500 31004KT 5SM BR BKN150
     FM190800 VRB03KT 2SM BR BKN120=

USA.gov is the U.S. government's official web portal to all federal, state and local government web resources and services.